Time;durP1;ratioP1;P1;durP2;ratioP2;P2;SDS_P1;SDS_P2;PMS_P1;PMS_P2;Temp;Humidity;BMP_temperature;BMP_pressure;BME280_temperature;BME280_humidity;BME280_pressure;Samples;Min_cycle;Max_cycle;Signal;HPM_P1;HPM_P2
2024/03/17 00:02:07;;;;;;;11.37;6.00;;;9.70;99.90;;;;;;5075476;28;20601;-56
2024/03/17 00:04:34;;;;;;;10.47;5.70;;;9.70;99.90;;;;;;5075493;28;20455;-56
2024/03/17 00:07:01;;;;;;;10.17;6.13;;;9.70;99.90;;;;;;5075034;28;20205;-56
2024/03/17 00:09:28;;;;;;;11.20;4.97;;;9.60;99.90;;;;;;5075455;28;20453;-56
2024/03/17 00:11:55;;;;;;;10.70;6.17;;;9.70;99.90;;;;;;5075254;28;20813;-56
2024/03/17 00:14:22;;;;;;;7.20;6.50;;;9.60;99.90;;;;;;5075191;28;20432;-56
2024/03/17 00:16:48;;;;;;;8.87;6.30;;;9.70;99.90;;;;;;5075174;28;20448;-56
2024/03/17 00:19:16;;;;;;;8.97;6.43;;;9.60;99.90;;;;;;5075024;28;20992;-56
2024/03/17 00:21:42;;;;;;;12.67;6.50;;;9.60;99.90;;;;;;5074901;28;20687;-56
2024/03/17 00:24:10;;;;;;;8.73;6.90;;;9.60;99.90;;;;;;5074991;28;20475;-56
2024/03/17 00:26:36;;;;;;;7.70;6.27;;;9.60;99.90;;;;;;5075059;28;20203;-56
2024/03/17 00:29:03;;;;;;;11.87;6.43;;;9.60;99.90;;;;;;5074587;28;21008;-56
2024/03/17 00:31:29;;;;;;;9.37;6.40;;;9.60;99.90;;;;;;5074675;28;20198;-56
2024/03/17 00:33:56;;;;;;;8.70;6.60;;;9.60;99.90;;;;;;5074813;28;20444;-56
2024/03/17 00:36:22;;;;;;;6.73;6.10;;;9.60;99.90;;;;;;5074791;28;20202;-56
2024/03/17 00:38:49;;;;;;;9.50;6.50;;;9.60;99.90;;;;;;5074364;28;20986;-56
2024/03/17 00:41:17;;;;;;;7.00;5.53;;;9.60;99.90;;;;;;5074716;28;20483;-56
2024/03/17 00:43:42;;;;;;;10.70;6.17;;;9.60;99.90;;;;;;5074575;28;20477;-56
2024/03/17 00:46:09;;;;;;;8.23;6.43;;;9.50;99.90;;;;;;5074643;28;20447;-56
2024/03/17 00:48:35;;;;;;;6.70;6.10;;;9.50;99.90;;;;;;5074491;28;20229;-56
2024/03/17 00:51:02;;;;;;;10.03;6.33;;;9.50;99.90;;;;;;5074210;28;20811;-56
2024/03/17 00:53:28;;;;;;;10.60;6.50;;;9.50;99.90;;;;;;5074191;28;20205;-56
2024/03/17 00:55:57;;;;;;;9.43;6.93;;;9.50;99.90;;;;;;5073378;28;20464;-56
2024/03/17 00:58:25;;;;;;;8.90;7.20;;;9.50;99.90;;;;;;5074880;28;20480;-56
2024/03/17 01:00:51;;;;;;;9.10;6.60;;;9.40;99.90;;;;;;5074273;28;20540;-56
2024/03/17 01:03:17;;;;;;;10.00;7.47;;;9.40;99.90;;;;;;5074143;28;20502;-56
2024/03/17 01:05:46;;;;;;;7.50;6.50;;;9.40;99.90;;;;;;5072803;28;20927;-56
2024/03/17 01:08:12;;;;;;;7.00;6.20;;;9.40;99.90;;;;;;5074050;28;20230;-56
2024/03/17 01:10:39;;;;;;;14.70;7.13;;;9.40;99.90;;;;;;5074032;28;20452;-56
2024/03/17 01:13:06;;;;;;;10.20;7.40;;;9.40;99.90;;;;;;5074115;28;20202;-56
2024/03/17 01:15:36;;;;;;;7.03;6.33;;;9.40;99.90;;;;;;5074004;28;20853;-56
2024/03/17 01:18:04;;;;;;;8.90;7.00;;;9.40;99.90;;;;;;5073521;28;21043;-56
2024/03/17 01:20:31;;;;;;;13.90;7.23;;;9.50;99.90;;;;;;5073946;28;20447;-56
2024/03/17 01:22:57;;;;;;;9.93;7.20;;;9.50;99.90;;;;;;5074615;28;20481;-56
2024/03/17 01:25:25;;;;;;;8.47;6.50;;;9.50;99.90;;;;;;5073481;28;20447;-56
2024/03/17 01:27:51;;;;;;;8.67;7.03;;;9.40;99.90;;;;;;5073758;28;20226;-56
2024/03/17 01:30:19;;;;;;;8.87;7.50;;;9.40;99.90;;;;;;5073840;28;20483;-56
2024/03/17 01:32:46;;;;;;;8.80;7.90;;;9.40;99.90;;;;;;5073722;28;20205;-56
2024/03/17 01:35:13;;;;;;;11.10;7.87;;;9.40;99.90;;;;;;5073864;28;20449;-56
2024/03/17 01:37:39;;;;;;;7.87;6.93;;;9.40;99.90;;;;;;5073777;28;20471;-56
2024/03/17 01:40:09;;;;;;;9.20;7.20;;;9.40;99.90;;;;;;5073603;28;20820;-56
2024/03/17 01:42:34;;;;;;;10.90;7.17;;;9.40;99.90;;;;;;5073655;28;20859;-56
2024/03/17 01:45:01;;;;;;;9.30;6.90;;;9.40;99.90;;;;;;5073239;28;20539;-56
2024/03/17 01:47:27;;;;;;;8.60;7.73;;;9.40;99.90;;;;;;5073359;28;20577;-56
2024/03/17 01:49:56;;;;;;;8.83;7.93;;;9.30;99.90;;;;;;5073459;28;20848;-56
2024/03/17 01:52:22;;;;;;;11.00;7.23;;;9.30;99.90;;;;;;5073550;28;20441;-56
2024/03/17 01:54:49;;;;;;;9.03;7.33;;;9.30;99.90;;;;;;5073587;28;20470;-56
2024/03/17 01:57:15;;;;;;;11.07;7.90;;;9.30;99.90;;;;;;5073198;28;20473;-56
2024/03/17 01:59:42;;;;;;;12.97;7.67;;;9.30;99.90;;;;;;5073441;28;20532;-56
2024/03/17 02:02:08;;;;;;;9.30;7.50;;;9.20;99.90;;;;;;5073079;28;20483;-56
2024/03/17 02:04:34;;;;;;;10.10;7.70;;;9.20;99.90;;;;;;5072915;28;20520;-56
2024/03/17 02:07:01;;;;;;;11.60;7.10;;;9.20;99.90;;;;;;5072977;28;20205;-56
2024/03/17 02:09:28;;;;;;;10.40;7.93;;;9.20;99.90;;;;;;5073389;28;20857;-56
2024/03/17 02:11:54;;;;;;;11.47;8.67;;;9.20;99.90;;;;;;5073133;28;20449;-57
2024/03/17 02:14:21;;;;;;;10.27;8.27;;;9.20;99.90;;;;;;5072870;28;20443;-56
2024/03/17 02:16:47;;;;;;;9.23;8.33;;;9.10;99.90;;;;;;5072861;28;20206;-56
2024/03/17 02:19:14;;;;;;;9.70;8.70;;;9.10;99.90;;;;;;5073131;28;21004;-57
2024/03/17 02:21:39;;;;;;;9.83;8.43;;;9.10;99.90;;;;;;5072957;28;20206;-56
2024/03/17 02:24:09;;;;;;;13.87;8.40;;;9.10;99.90;;;;;;5073172;28;20483;-57
2024/03/17 02:26:35;;;;;;;8.67;7.80;;;9.00;99.90;;;;;;5073125;28;20574;-57
2024/03/17 02:29:02;;;;;;;10.47;8.13;;;9.00;99.90;;;;;;5073315;28;20498;-57
2024/03/17 02:31:28;;;;;;;11.63;8.60;;;9.00;99.90;;;;;;5072815;28;21011;-57
2024/03/17 02:33:54;;;;;;;9.10;8.20;;;9.00;99.90;;;;;;5073128;28;20531;-57
2024/03/17 02:36:20;;;;;;;8.67;7.80;;;9.00;99.90;;;;;;5072801;28;20693;-57
2024/03/17 02:41:32;;;;;;;9.40;7.10;;;8.90;99.90;;;;;;5073079;28;20221;-57
2024/03/17 02:43:59;;;;;;;8.67;6.53;;;8.90;99.90;;;;;;5072816;28;20485;-57
2024/03/17 02:46:27;;;;;;;7.70;7.00;;;8.90;99.90;;;;;;5072717;28;20935;-56
2024/03/17 02:48:54;;;;;;;8.70;7.80;;;8.90;99.90;;;;;;5073688;28;20804;-56
2024/03/17 02:51:22;;;;;;;8.63;7.50;;;8.90;99.90;;;;;;5072931;28;20436;-56
2024/03/17 02:53:50;;;;;;;11.60;8.20;;;8.80;99.90;;;;;;5072588;28;20441;-57
2024/03/17 02:56:18;;;;;;;8.90;8.00;;;8.80;99.90;;;;;;5072667;28;20463;-57
2024/03/17 02:58:48;;;;;;;9.13;8.10;;;8.80;99.90;;;;;;5072736;28;20552;-56
2024/03/17 03:01:15;;;;;;;8.97;7.53;;;8.80;99.90;;;;;;5072921;28;20513;-56
2024/03/17 03:03:42;;;;;;;8.63;7.50;;;8.80;99.90;;;;;;5072451;28;21012;-57
2024/03/17 03:06:11;;;;;;;8.70;7.67;;;8.80;99.90;;;;;;5073624;28;20444;-57
2024/03/17 03:08:39;;;;;;;9.50;7.37;;;8.70;99.90;;;;;;5072632;28;20479;-57
2024/03/17 03:11:10;;;;;;;9.47;8.40;;;8.70;99.90;;;;;;5072662;28;20452;-57
2024/03/17 03:13:37;;;;;;;8.57;7.77;;;8.70;99.90;;;;;;5072690;28;20425;-57
2024/03/17 03:16:07;;;;;;;10.90;8.53;;;8.70;99.90;;;;;;5072681;28;20821;-57
2024/03/17 03:18:34;;;;;;;10.20;7.73;;;8.70;99.90;;;;;;5072206;28;20536;-57
2024/03/17 03:21:01;;;;;;;12.33;9.33;;;8.70;99.90;;;;;;5072293;28;20809;-57
2024/03/17 03:23:28;;;;;;;9.43;8.17;;;8.70;99.90;;;;;;5072623;28;20477;-57
2024/03/17 03:25:58;;;;;;;8.93;8.03;;;8.70;99.90;;;;;;5072639;28;20444;-57
2024/03/17 03:28:26;;;;;;;8.43;7.63;;;8.70;99.90;;;;;;5072555;28;20576;-56
2024/03/17 03:30:53;;;;;;;9.80;8.17;;;8.70;99.90;;;;;;5076147;28;20439;-57
2024/03/17 03:33:22;;;;;;;9.50;8.00;;;8.70;99.90;;;;;;5076102;28;20452;-57
2024/03/17 03:35:50;;;;;;;9.80;7.97;;;8.70;99.90;;;;;;5076064;28;20449;-57
2024/03/17 03:38:17;;;;;;;9.23;8.17;;;8.70;99.90;;;;;;5075521;28;20981;-57
2024/03/17 03:40:44;;;;;;;9.47;8.47;;;8.70;99.90;;;;;;5075991;28;20444;-57
2024/03/17 03:43:12;;;;;;;11.73;9.90;;;8.80;99.90;;;;;;5075541;28;20484;-57
2024/03/17 03:45:39;;;;;;;10.50;8.07;;;8.80;99.90;;;;;;5075484;28;20947;-57
2024/03/17 03:48:08;;;;;;;10.10;8.37;;;8.80;99.90;;;;;;5075628;28;20555;-57
2024/03/17 03:50:38;;;;;;;11.90;8.13;;;8.80;99.90;;;;;;5075743;28;20895;-57
2024/03/17 03:53:05;;;;;;;8.73;7.43;;;8.80;99.90;;;;;;5075379;28;20531;-57
2024/03/17 03:55:32;;;;;;;10.87;7.40;;;8.80;99.90;;;;;;5075547;28;20448;-57
2024/03/17 03:57:59;;;;;;;7.83;6.80;;;8.80;99.90;;;;;;5075197;28;21009;-57
2024/03/17 04:00:29;;;;;;;10.70;6.50;;;8.80;99.90;;;;;;5075227;28;20441;-57
2024/03/17 04:02:56;;;;;;;7.93;6.07;;;8.80;99.90;;;;;;5075221;28;20799;-57
2024/03/17 04:05:23;;;;;;;7.20;6.50;;;8.80;99.90;;;;;;5075057;28;20931;-57
2024/03/17 04:07:51;;;;;;;9.67;6.80;;;8.80;99.90;;;;;;5075251;28;20456;-57
2024/03/17 04:10:18;;;;;;;10.13;7.63;;;8.80;99.90;;;;;;5075034;28;20466;-57
2024/03/17 04:12:45;;;;;;;8.70;7.13;;;8.80;99.90;;;;;;5075256;28;20497;-57
2024/03/17 04:15:13;;;;;;;8.70;7.40;;;8.80;99.90;;;;;;5075083;28;20443;-56
2024/03/17 04:17:42;;;;;;;8.00;7.10;;;8.80;99.90;;;;;;5074824;28;20552;-56
2024/03/17 04:20:13;;;;;;;11.43;8.20;;;8.80;99.90;;;;;;5074877;28;20476;-57
2024/03/17 04:22:40;;;;;;;10.37;7.50;;;8.80;99.90;;;;;;5075227;28;20425;-57
2024/03/17 04:25:09;;;;;;;8.30;7.40;;;8.90;99.90;;;;;;5074678;28;20489;-57
2024/03/17 04:27:36;;;;;;;9.93;7.60;;;8.90;99.90;;;;;;5074861;28;20502;-57
2024/03/17 04:30:05;;;;;;;10.53;7.40;;;8.90;99.90;;;;;;5074972;28;20829;-57
2024/03/17 04:32:32;;;;;;;7.83;7.03;;;8.90;99.90;;;;;;5074960;28;20476;-57
2024/03/17 04:34:59;;;;;;;7.63;6.73;;;8.90;99.90;;;;;;5074586;28;20927;-57
2024/03/17 04:37:26;;;;;;;8.17;7.20;;;8.90;99.90;;;;;;5074803;28;20457;-56
2024/03/17 04:39:54;;;;;;;10.73;7.07;;;8.90;99.90;;;;;;5074253;28;20785;-56
2024/03/17 04:42:22;;;;;;;9.60;6.83;;;8.90;99.90;;;;;;5074575;28;20448;-57
2024/03/17 04:44:49;;;;;;;8.07;7.27;;;8.90;99.90;;;;;;5074700;28;20488;-57
2024/03/17 04:47:15;;;;;;;9.63;6.37;;;8.90;99.90;;;;;;5074585;28;20455;-57
2024/03/17 04:49:43;;;;;;;9.33;7.43;;;8.90;99.90;;;;;;5074208;28;20451;-57
2024/03/17 04:52:11;;;;;;;8.40;5.97;;;8.90;99.90;;;;;;5074303;28;20440;-57
2024/03/17 04:54:38;;;;;;;7.80;6.20;;;8.90;99.90;;;;;;5074597;28;20443;-57
2024/03/17 04:57:05;;;;;;;10.20;7.20;;;8.90;99.90;;;;;;5074031;28;20452;-57
2024/03/17 04:59:35;;;;;;;7.47;6.77;;;8.90;99.90;;;;;;5075188;28;20543;-57
2024/03/17 05:02:02;;;;;;;10.70;7.00;;;8.90;99.90;;;;;;5074875;28;20845;-57
2024/03/17 05:04:30;;;;;;;7.30;6.33;;;8.90;99.90;;;;;;5074223;28;20477;-57
2024/03/17 05:06:57;;;;;;;8.27;7.40;;;8.90;99.90;;;;;;5074335;28;20590;-57
2024/03/17 05:09:24;;;;;;;8.60;7.20;;;8.80;99.90;;;;;;5073979;28;20938;-57
2024/03/17 05:11:52;;;;;;;9.03;7.10;;;8.80;99.90;;;;;;5073947;28;20934;-57
2024/03/17 05:14:19;;;;;;;8.93;6.60;;;8.80;99.90;;;;;;5074269;28;20441;-57
2024/03/17 05:16:49;;;;;;;12.80;7.20;;;8.80;99.90;;;;;;5073810;28;20931;-57
2024/03/17 05:19:17;;;;;;;12.90;7.70;;;8.70;99.90;;;;;;5073999;28;20823;-56
2024/03/17 05:21:44;;;;;;;9.83;7.57;;;8.70;99.90;;;;;;5073739;28;20441;-57
2024/03/17 05:24:12;;;;;;;7.17;6.47;;;8.70;99.90;;;;;;5073835;28;20484;-57
2024/03/17 05:26:38;;;;;;;8.40;7.30;;;8.70;99.90;;;;;;5073830;28;20444;-57
2024/03/17 05:29:05;;;;;;;10.20;6.50;;;8.70;99.90;;;;;;5073420;28;20471;-57
2024/03/17 05:31:32;;;;;;;10.40;7.77;;;8.70;99.90;;;;;;5073768;28;20789;-57
2024/03/17 05:34:00;;;;;;;9.53;7.80;;;8.60;99.90;;;;;;5073443;28;20539;-57
2024/03/17 05:36:32;;;;;;;9.43;7.63;;;8.60;99.90;;;;;;5073722;28;20437;-57
2024/03/17 05:38:59;;;;;;;7.87;6.80;;;8.60;99.90;;;;;;5073674;28;20569;-57
2024/03/17 05:41:25;;;;;;;7.70;6.83;;;8.60;99.90;;;;;;5073686;28;20563;-57
2024/03/17 05:43:52;;;;;;;8.37;7.50;;;8.60;99.90;;;;;;5073169;28;20476;-57
2024/03/17 05:46:19;;;;;;;8.87;7.03;;;8.60;99.90;;;;;;5073242;28;20868;-57
2024/03/17 05:48:46;;;;;;;9.93;6.90;;;8.50;99.90;;;;;;5073474;28;20465;-57
2024/03/17 05:51:16;;;;;;;7.43;6.20;;;8.50;99.90;;;;;;5073095;28;20441;-57
2024/03/17 05:53:44;;;;;;;7.67;6.73;;;8.50;99.90;;;;;;5073231;28;20444;-57
2024/03/17 05:56:12;;;;;;;6.70;6.00;;;8.50;99.90;;;;;;5073048;28;20943;-57
2024/03/17 05:58:39;;;;;;;9.90;6.77;;;8.40;99.90;;;;;;5073398;28;20473;-57
2024/03/17 06:01:07;;;;;;;9.47;6.93;;;8.50;99.90;;;;;;5073097;28;20824;-57
2024/03/17 06:03:35;;;;;;;8.03;6.57;;;8.50;99.90;;;;;;5073382;28;20445;-57
2024/03/17 06:06:03;;;;;;;6.83;6.13;;;8.50;99.90;;;;;;5073317;28;20468;-57
2024/03/17 06:08:31;;;;;;;6.73;6.13;;;8.50;99.90;;;;;;5073223;28;20547;-57
2024/03/17 06:11:00;;;;;;;8.17;6.40;;;8.50;99.90;;;;;;5072966;28;20455;-57
2024/03/17 06:13:28;;;;;;;6.40;5.80;;;8.50;99.90;;;;;;5073325;28;20457;-57
2024/03/17 06:15:55;;;;;;;9.43;6.83;;;8.50;99.90;;;;;;5072947;28;20568;-57
2024/03/17 06:18:23;;;;;;;6.87;6.17;;;8.50;99.90;;;;;;5072868;28;20513;-57
2024/03/17 06:20:50;;;;;;;6.20;5.57;;;8.50;99.90;;;;;;5072933;28;20444;-57
2024/03/17 06:23:17;;;;;;;6.37;5.67;;;8.60;99.90;;;;;;5073212;28;20444;-57
2024/03/17 06:25:46;;;;;;;6.57;5.63;;;8.60;99.90;;;;;;5073110;28;20480;-57
2024/03/17 06:28:17;;;;;;;8.13;6.50;;;8.60;99.90;;;;;;5072706;28;20461;-57
2024/03/17 06:30:46;;;;;;;7.00;6.40;;;8.60;99.90;;;;;;5073103;28;20432;-57
2024/03/17 06:33:14;;;;;;;9.13;6.40;;;8.60;99.90;;;;;;5072831;28;20452;-57
2024/03/17 06:35:41;;;;;;;8.20;5.67;;;8.60;99.90;;;;;;5073048;28;20433;-57
2024/03/17 06:38:09;;;;;;;7.33;5.13;;;8.70;99.90;;;;;;5072878;28;20460;-56
2024/03/17 06:40:36;;;;;;;6.50;5.37;;;8.70;99.90;;;;;;5072676;28;20955;-57
2024/03/17 06:43:05;;;;;;;6.20;5.60;;;8.70;99.90;;;;;;5072619;28;21002;-57
2024/03/17 06:45:32;;;;;;;6.90;5.87;;;8.70;99.90;;;;;;5072845;28;20480;-57
2024/03/17 06:47:58;;;;;;;8.27;5.40;;;8.70;99.90;;;;;;5072481;28;20839;-57
2024/03/17 06:50:26;;;;;;;7.10;5.90;;;8.80;99.90;;;;;;5072905;28;20437;-57
2024/03/17 06:52:53;;;;;;;6.23;5.60;;;8.80;99.90;;;;;;5072595;28;20870;-57
2024/03/17 06:55:21;;;;;;;6.33;5.60;;;8.80;99.90;;;;;;5072884;28;20443;-57
2024/03/17 06:57:48;;;;;;;7.87;5.97;;;8.80;99.90;;;;;;5072827;28;20495;-57
2024/03/17 07:00:17;;;;;;;5.40;4.90;;;8.70;99.90;;;;;;5072808;28;20445;-57
2024/03/17 07:02:45;;;;;;;6.37;5.70;;;8.80;99.90;;;;;;5072888;28;20445;-57
2024/03/17 07:05:15;;;;;;;7.30;5.93;;;8.80;99.90;;;;;;5076189;28;21005;-57
2024/03/17 07:07:42;;;;;;;7.60;5.40;;;8.80;99.90;;;;;;5076021;28;20464;-57
2024/03/17 07:10:11;;;;;;;7.20;5.87;;;8.90;99.90;;;;;;5076496;28;20449;-57
2024/03/17 07:12:38;;;;;;;5.10;4.50;;;8.90;99.90;;;;;;5076388;28;20444;-57
2024/03/17 07:15:08;;;;;;;5.93;5.33;;;8.90;99.90;;;;;;5076459;28;20447;-57
2024/03/17 07:17:36;;;;;;;5.70;5.20;;;8.90;99.90;;;;;;5076082;28;20546;-57
2024/03/17 07:20:08;;;;;;;8.20;5.03;;;9.00;99.90;;;;;;5076073;28;20827;-57
2024/03/17 07:22:35;;;;;;;5.83;4.77;;;9.10;99.90;;;;;;5076309;28;20516;-57
2024/03/17 07:25:02;;;;;;;5.70;4.23;;;9.20;99.90;;;;;;5076156;28;20488;-57
2024/03/17 07:27:29;;;;;;;4.47;4.00;;;9.30;99.90;;;;;;5076174;28;20461;-57
2024/03/17 07:29:56;;;;;;;4.90;4.50;;;9.40;99.90;;;;;;5076167;28;20444;-57
2024/03/17 07:32:23;;;;;;;5.20;4.10;;;9.40;99.90;;;;;;5076106;28;20449;-57
2024/03/17 07:34:51;;;;;;;5.33;4.77;;;9.50;99.90;;;;;;5075810;28;20436;-57
2024/03/17 07:37:18;;;;;;;6.60;4.50;;;9.70;99.90;;;;;;5075925;28;20451;-57
2024/03/17 07:39:45;;;;;;;4.60;4.20;;;9.80;99.90;;;;;;5075667;28;21022;-57
2024/03/17 07:42:14;;;;;;;5.30;4.73;;;10.00;99.90;;;;;;5075846;28;20455;-57
2024/03/17 07:44:40;;;;;;;6.80;4.70;;;10.10;99.90;;;;;;5075913;28;20482;-57
2024/03/17 07:47:07;;;;;;;5.13;4.53;;;10.30;99.90;;;;;;5075676;28;20980;-57
2024/03/17 07:49:34;;;;;;;4.00;3.70;;;10.50;99.90;;;;;;5075707;28;20447;-57
2024/03/17 07:52:02;;;;;;;4.67;4.27;;;10.70;99.90;;;;;;5075778;28;20441;-57
2024/03/17 07:54:29;;;;;;;6.23;3.13;;;10.90;99.90;;;;;;5075345;28;20451;-57
2024/03/17 07:56:56;;;;;;;3.10;2.90;;;11.10;99.90;;;;;;5075507;28;20573;-57
2024/03/17 07:59:22;;;;;;;3.13;2.90;;;11.20;98.50;;;;;;5075584;28;20483;-57
2024/03/17 08:01:50;;;;;;;3.90;3.23;;;11.30;98.30;;;;;;5075243;28;20452;-57
2024/03/17 08:04:16;;;;;;;4.40;2.83;;;11.50;97.60;;;;;;5075455;28;20494;-56
2024/03/17 08:06:44;;;;;;;6.07;3.10;;;11.60;96.70;;;;;;5075149;28;20527;-57
2024/03/17 08:09:12;;;;;;;2.70;2.47;;;11.60;96.40;;;;;;5075244;28;20519;-57
2024/03/17 08:11:43;;;;;;;4.30;2.60;;;11.70;95.80;;;;;;5074997;28;20455;-56
2024/03/17 08:14:10;;;;;;;2.97;2.77;;;11.60;95.40;;;;;;5075229;28;20517;-57
2024/03/17 08:16:37;;;;;;;3.50;3.20;;;11.60;95.70;;;;;;5075200;28;20876;-56
2024/03/17 08:19:04;;;;;;;3.63;3.33;;;11.60;95.40;;;;;;5075286;28;20472;-56
2024/03/17 08:21:30;;;;;;;2.97;2.67;;;11.60;95.30;;;;;;5075371;28;20452;-56
2024/03/17 08:23:57;;;;;;;2.83;2.63;;;11.70;95.60;;;;;;5075159;28;20441;-56
2024/03/17 08:26:25;;;;;;;3.47;3.17;;;11.80;95.20;;;;;;5074692;28;20479;-56
2024/03/17 08:28:52;;;;;;;2.90;2.70;;;11.90;95.10;;;;;;5075025;28;20460;-55
2024/03/17 08:31:19;;;;;;;3.40;2.80;;;12.00;94.90;;;;;;5074652;28;20452;-56
2024/03/17 08:33:47;;;;;;;3.67;3.27;;;12.10;94.70;;;;;;5075021;28;20547;-55
2024/03/17 08:36:17;;;;;;;4.37;2.63;;;12.20;94.60;;;;;;5074988;28;20451;-56
2024/03/17 08:38:44;;;;;;;2.80;2.47;;;12.30;94.10;;;;;;5074840;28;20474;-56
2024/03/17 08:41:13;;;;;;;2.40;2.20;;;12.30;94.10;;;;;;5074847;28;20445;-56
2024/03/17 08:43:42;;;;;;;3.43;3.00;;;12.40;94.40;;;;;;5074474;28;20953;-56
2024/03/17 08:46:10;;;;;;;4.23;2.73;;;12.50;94.70;;;;;;5074698;28;20567;-56
2024/03/17 08:48:38;;;;;;;6.80;3.47;;;12.70;94.70;;;;;;5074263;28;20479;-56
2024/03/17 08:51:06;;;;;;;5.83;3.27;;;12.80;94.60;;;;;;5074578;28;20444;-56
2024/03/17 08:53:34;;;;;;;4.63;3.77;;;12.90;94.70;;;;;;5074619;28;20467;-56
2024/03/17 08:56:01;;;;;;;4.13;3.83;;;13.00;94.80;;;;;;5074088;28;20957;-55
2024/03/17 08:58:28;;;;;;;5.80;5.23;;;13.10;94.70;;;;;;5074480;28;20461;-56
2024/03/17 09:00:57;;;;;;;7.60;4.50;;;13.20;94.70;;;;;;5074605;28;20524;-56
2024/03/17 09:03:24;;;;;;;4.03;3.60;;;13.30;95.00;;;;;;5074381;28;20441;-56
2024/03/17 09:05:54;;;;;;;7.50;5.10;;;13.30;94.70;;;;;;5074239;28;20515;-56
2024/03/17 09:08:23;;;;;;;8.07;4.40;;;13.40;94.80;;;;;;5074146;28;20468;-55
2024/03/17 09:10:52;;;;;;;7.23;5.83;;;13.50;95.10;;;;;;5074269;28;20498;-56
2024/03/17 09:13:20;;;;;;;6.80;4.97;;;13.60;94.80;;;;;;5074312;28;20460;-56
2024/03/17 09:15:54;;;;;;;5.97;4.40;;;13.60;95.00;;;;;;5074130;28;20458;-56
2024/03/17 09:18:23;;;;;;;5.93;3.40;;;13.80;94.90;;;;;;5074199;28;20467;-56
2024/03/17 09:20:57;;;;;;;5.97;5.33;;;13.90;94.30;;;;;;5074059;28;20445;-56
2024/03/17 09:23:26;;;;;;;6.60;6.00;;;13.80;93.60;;;;;;5074028;28;20424;-56
2024/03/17 09:25:57;;;;;;;8.07;6.20;;;13.70;93.70;;;;;;5073330;28;20827;-56
2024/03/17 09:28:23;;;;;;;7.80;6.37;;;13.50;93.50;;;;;;5073533;28;20453;-56
2024/03/17 09:30:52;;;;;;;9.43;6.20;;;13.30;93.60;;;;;;5073913;28;20444;-56
2024/03/17 09:33:19;;;;;;;9.40;6.57;;;13.30;94.00;;;;;;5073505;28;20449;-56
2024/03/17 09:35:53;;;;;;;7.43;5.17;;;13.20;93.70;;;;;;5073822;28;21013;-56
2024/03/17 09:38:21;;;;;;;8.27;5.57;;;13.10;93.90;;;;;;5073988;28;20474;-56
2024/03/17 09:40:51;;;;;;;6.60;5.90;;;13.10;94.20;;;;;;5073835;28;20498;-56
2024/03/17 09:43:17;;;;;;;7.43;5.83;;;13.20;94.20;;;;;;5073722;28;20449;-56
2024/03/17 09:45:44;;;;;;;6.47;5.47;;;13.20;94.10;;;;;;5073660;28;20481;-56
2024/03/17 09:48:15;;;;;;;6.10;5.50;;;13.20;94.20;;;;;;5073491;28;20468;-56
2024/03/17 09:50:42;;;;;;;6.93;5.37;;;13.30;94.00;;;;;;5073155;28;20421;-56
2024/03/17 09:53:16;;;;;;;6.20;5.47;;;13.40;93.90;;;;;;5073535;28;20883;-56
2024/03/17 09:55:43;;;;;;;7.23;5.27;;;13.40;93.70;;;;;;5073498;28;20413;-56
2024/03/17 09:58:17;;;;;;;106.03;13.23;;;13.50;93.70;;;;;;5073103;28;20492;-56
2024/03/17 10:00:44;;;;;;;60.47;10.27;;;13.60;94.10;;;;;;5073724;28;20425;-56
2024/03/17 10:03:11;;;;;;;83.43;11.47;;;13.70;94.30;;;;;;5073474;28;20441;-56
2024/03/17 10:05:37;;;;;;;30.70;8.37;;;13.80;94.40;;;;;;5073467;28;20480;-56
2024/03/17 10:08:05;;;;;;;52.33;8.77;;;13.90;94.30;;;;;;5073337;28;20494;-56
2024/03/17 10:10:33;;;;;;;9.37;6.00;;;14.10;94.10;;;;;;5073632;28;20448;-56
2024/03/17 10:13:00;;;;;;;6.13;5.20;;;14.30;93.90;;;;;;5073496;28;20440;-56
2024/03/17 10:15:26;;;;;;;12.00;5.93;;;14.60;93.70;;;;;;5073639;28;20440;-56
2024/03/17 10:17:54;;;;;;;6.23;5.17;;;14.80;93.60;;;;;;5073502;28;20464;-56
2024/03/17 10:20:25;;;;;;;4.97;4.50;;;15.10;93.20;;;;;;5073177;28;20474;-56
2024/03/17 10:23:07;;;;;;;4.80;4.30;;;15.40;92.50;;;;;;5073581;28;20433;-56
2024/03/17 10:25:40;;;;;;;4.93;4.00;;;15.60;91.10;;;;;;5073745;28;20476;-56
2024/03/17 10:28:12;;;;;;;5.00;4.13;;;15.80;90.10;;;;;;5073186;28;20460;-56
2024/03/17 10:30:40;;;;;;;7.60;5.47;;;15.90;90.00;;;;;;5073089;28;20429;-56
2024/03/17 10:33:09;;;;;;;4.90;4.50;;;16.10;90.00;;;;;;5072733;28;20988;-56
2024/03/17 10:35:38;;;;;;;4.80;4.20;;;16.30;89.40;;;;;;5073057;28;20463;-56
2024/03/17 10:38:06;;;;;;;5.40;4.90;;;16.60;88.30;;;;;;5073976;28;20503;-56
2024/03/17 10:40:37;;;;;;;12.83;5.10;;;16.90;87.20;;;;;;5077224;28;20871;-56
2024/03/17 10:43:04;;;;;;;5.40;4.80;;;17.20;83.60;;;;;;5077126;28;20482;-56
2024/03/17 10:45:35;;;;;;;5.00;4.57;;;17.60;82.90;;;;;;5076927;28;20484;-56
2024/03/17 10:48:03;;;;;;;5.70;5.10;;;18.10;82.30;;;;;;5076897;28;20464;-56
2024/03/17 10:50:32;;;;;;;5.10;4.60;;;18.70;80.20;;;;;;5076900;28;20448;-56
2024/03/17 10:53:03;;;;;;;7.93;4.83;;;19.40;76.90;;;;;;5076896;28;20437;-57
2024/03/17 10:55:36;;;;;;;6.93;4.10;;;20.30;72.80;;;;;;5076539;28;20433;-57
2024/03/17 10:58:08;;;;;;;7.23;4.90;;;21.00;63.00;;;;;;5076815;28;20475;-57
2024/03/17 11:00:36;;;;;;;4.20;3.80;;;21.60;59.60;;;;;;5076505;28;20492;-57
2024/03/17 11:03:06;;;;;;;4.13;3.73;;;22.30;58.00;;;;;;5076705;28;20471;-56
2024/03/17 11:05:36;;;;;;;4.67;3.93;;;22.80;53.90;;;;;;5076305;28;20974;-57
2024/03/17 11:08:04;;;;;;;6.60;4.10;;;23.10;52.90;;;;;;5076507;28;20464;-56
2024/03/17 11:10:34;;;;;;;4.63;3.80;;;23.10;52.30;;;;;;5076475;28;20445;-57
2024/03/17 11:13:02;;;;;;;4.97;3.87;;;22.90;52.20;;;;;;5076410;28;20445;-57
2024/03/17 11:15:53;;;;;;;4.23;3.83;;;22.70;52.50;;;;;;5076536;28;20449;-57
2024/03/17 11:18:39;;;;;;;4.43;3.53;;;22.60;52.80;;;;;;5075996;28;20456;-56
2024/03/17 11:21:10;;;;;;;6.10;3.70;;;22.60;53.10;;;;;;5076319;28;20440;-57
2024/03/17 11:23:38;;;;;;;3.90;3.60;;;22.60;52.60;;;;;;5076736;28;20456;-57
2024/03/17 11:26:06;;;;;;;5.03;4.00;;;22.70;53.10;;;;;;5076428;28;20537;-57
2024/03/17 11:28:51;;;;;;;4.97;4.30;;;22.90;52.20;;;;;;5076247;28;20456;-57
2024/03/17 11:31:37;;;;;;;3.97;3.67;;;23.30;51.10;;;;;;5075952;28;20520;-57
2024/03/17 11:34:07;;;;;;;3.90;3.50;;;23.90;51.90;;;;;;5075797;28;20945;-57
2024/03/17 11:36:37;;;;;;;3.77;3.47;;;24.40;49.40;;;;;;5076141;28;20486;-57
2024/03/17 11:39:06;;;;;;;7.30;5.20;;;24.50;47.70;;;;;;5075776;28;20964;-57
2024/03/17 11:41:38;;;;;;;7.30;4.77;;;24.30;47.70;;;;;;5075700;28;20494;-57
2024/03/17 11:44:23;;;;;;;5.50;4.73;;;24.10;47.70;;;;;;5076195;28;20490;-57
2024/03/17 11:46:53;;;;;;;4.73;4.23;;;23.90;48.10;;;;;;5076015;28;20464;-57
2024/03/17 11:49:22;;;;;;;5.70;3.97;;;23.70;48.40;;;;;;5074742;28;20833;-57
2024/03/17 11:51:49;;;;;;;4.20;3.50;;;23.60;48.80;;;;;;5075632;28;21013;-57
2024/03/17 11:54:19;;;;;;;3.97;3.67;;;23.50;49.30;;;;;;5075844;28;20449;-56
2024/03/17 11:56:47;;;;;;;4.33;3.90;;;23.40;49.30;;;;;;5075445;28;20469;-56
2024/03/17 11:59:12;;;;;;;3.90;3.50;;;23.30;49.00;;;;;;5075236;28;20471;-55
2024/03/17 12:01:40;;;;;;;7.40;4.67;;;23.20;48.90;;;;;;5075565;28;20445;-55
2024/03/17 12:04:08;;;;;;;75.67;9.40;;;22.90;48.80;;;;;;5075174;28;20668;-55
2024/03/17 12:06:35;;;;;;;10.17;4.53;;;22.70;49.40;;;;;;5075446;28;20472;-55
2024/03/17 12:09:17;;;;;;;5.67;3.93;;;22.60;50.40;;;;;;5075368;28;20468;-56
2024/03/17 12:11:44;;;;;;;8.87;4.00;;;22.40;50.70;;;;;;5075471;28;20429;-55
2024/03/17 12:14:19;;;;;;;4.77;4.13;;;22.30;51.10;;;;;;5075274;28;20447;-55
2024/03/17 12:16:53;;;;;;;10.33;4.63;;;22.20;51.40;;;;;;5075374;28;20420;-56
2024/03/17 12:19:21;;;;;;;7.47;4.40;;;22.30;51.80;;;;;;5075267;28;20498;-56
2024/03/17 12:21:50;;;;;;;4.93;4.43;;;22.50;51.20;;;;;;5074973;28;20982;-56
2024/03/17 12:24:18;;;;;;;4.83;4.33;;;22.70;51.10;;;;;;5074888;28;20821;-56
2024/03/17 12:26:47;;;;;;;3.77;3.30;;;22.90;50.10;;;;;;5075111;28;20881;-56
2024/03/17 12:29:25;;;;;;;5.40;4.23;;;23.00;50.10;;;;;;5075060;28;20479;-55
2024/03/17 12:31:52;;;;;;;6.30;4.63;;;23.10;50.10;;;;;;5075039;28;20854;-56
2024/03/17 12:34:20;;;;;;;4.50;4.10;;;23.10;50.00;;;;;;5074693;28;20437;-56
2024/03/17 12:36:49;;;;;;;5.40;4.00;;;23.00;49.90;;;;;;5075008;28;20445;-56
2024/03/17 12:39:19;;;;;;;5.50;5.00;;;22.90;49.70;;;;;;5074467;28;20808;-55
2024/03/17 12:42:00;;;;;;;8.90;4.13;;;22.80;49.90;;;;;;5074914;28;20417;-55
2024/03/17 12:44:27;;;;;;;5.30;4.73;;;22.70;50.20;;;;;;5075156;28;20413;-56
2024/03/17 12:46:56;;;;;;;4.80;4.40;;;22.60;50.60;;;;;;5074686;28;20484;-56
2024/03/17 12:49:25;;;;;;;5.47;4.70;;;22.50;50.10;;;;;;5075224;28;20479;-56
2024/03/17 12:51:52;;;;;;;7.00;5.10;;;22.40;50.10;;;;;;5074327;28;20814;-56
2024/03/17 12:54:22;;;;;;;7.40;5.00;;;22.30;50.50;;;;;;5074550;28;20518;-56
2024/03/17 13:02:23;;;;;;;7.10;4.07;;;22.00;51.40;;;;;;5072081;28;20436;-55
2024/03/17 13:05:07;;;;;;;4.93;4.50;;;21.80;51.40;;;;;;5074076;28;20830;-55